Kelloggsville, Ohio
Current Conditions -  °F | °C
As of 5:50 PM on Tuesday 21 Oct 2014 (Local Time) from KHZY Reporting Station
Light Rain Light Rain  
Wind Chill: 46°   Ceiling: 500
Heat Index: 48°   Visibility: 1.2mi
Dew Point: 46°   Wind: 5mph
Humidity: 93%   Direction: 330°NNW
Pressure: 29.98"   Gusts: NA
Location:  41.8949°N, 80.5816°W
Report Text: KHZY 212150Z AUTO 33004KT 1 1/4SM -RA BR OVC005 09/08 A2998 RMK AO2 P0005
Loading
Personal Weather Stations






























Interactive Weather Map
Tropical Storm Tracking
New forecast layout! Learn more

10-Day Weather Forecast

Advertisements
Track Severe Weather on mobile